Airfield :
LOGIN :

Register | Disclaimer

   EN    FR    IT 

 










Legend :    VFR   Marginal VFR   IFR   Intensive IFR   Very Intensive IFR
Visi :
Ceiling :
>= 8 km
>= 3000ft
5 to 8 km
1000 to 3000 ft
1500m to 5 km
500 to 1000 ft
800 to 1500m
200 to 500 ft
< 800m
< 200 ft
Symbols :   Thunderstorms  Fog  Heavy snow  Heavy precipitations  Wind > 20 kt
SIGMETs :     Misc.  Thunderstorms  Icing  Turbulence  Mountain Waves  Volcanic Ashes






- Airport Elevation : 465 ft
- IATA code : LEJ


EDDP - Leipzig Halle

CURRENT METAR :
  • 181320Z 24013KT 9999 FEW017 BKN040 03/01 Q1019 R88/CLRD// NOSIG

EXPIRED METARs :
  • 181250Z 24013KT 9999 FEW017 BKN041 03/01 Q1019 R88/CLRD// NOSIG
  • 181220Z 25014KT 9999 FEW017 BKN042 03/01 Q1020 R88/CLRD// NOSIG
  • 181150Z 25014KT 9999 FEW025 03/01 Q1020 R26R/4902// R26L/190195 NOSIG
  • 181120Z 25012KT 9999 SCT025 03/01 Q1020 R26R/4502// R26L/190195 NOSIG
  • 181050Z 25011KT 9999 SCT025 03/01 Q1020 R26R/4502// R26L/190195 NOSIG

TAF TAF EDDP
Valid from the 18 at 12:00 until the 19 at 12:00 UTC


181100Z 1812/1912 25010KT 9999 BKN025
BECMG 1812/1815 23015KT
PROB40
TEMPO 1819/1907 23015G25KT
BECMG 1907/1909 20015G25KT



MET'MAP, your aeronautical weather chart ! - Copyright ORBIFLY December 2007 - Disclaimer

ORBIFLY MET'MAP TEAM :

Programming & Development : Alexandra Zaïnal
Concept & original design : Baudouin d'Aumeries
Assistance for programming : Marc-Olivier Méhu
Technical & hardware support : Manuel Goepfert

Contact : metmap@orbifly.com




SOURCES & CREDITS :

   NOAA